Saturday, January 20, 2018, 10:08 AM EST
Back to Local

KOXB, Ocean City Municipal Airport

Location: Berlin, MD, United States Lat: 38.317
Local Time: 10:08 AM EST (15:08 GMT) Lon: -75.117
Time Zone: US/Eastern Elev: 13 ft

Show me the last for .
Show Coded

Time T Td Feel RH Dir Speed Gust Alt SLP Vis Weather Sky Remarks
2018-01-20 09:53 45 19 37 35 270° 9 21 30.05 30.05 10 CLR None
2018-01-20 08:53 38 22 33 52 250° 7 - 30.05 30.04 10 CLR None
2018-01-20 07:53 35 20 29 53 240° 8 - 30.04 30.03 10 CLR None
2018-01-20 06:53 34 19 29 53 250° 6 - 30.03 30.03 10 CLR 6-hr Min Temp (7am): 26.1°F
6-hr Max Temp (7am): 35.1°F
2018-01-20 05:53 34 20 29 55 240° 6 - 30.02 30.02 10 CLR None
2018-01-20 04:53 34 20 29 55 250° 6 - 30.02 30.01 10 CLR None
2018-01-20 03:53 35 20 29 53 240° 8 - 30.01 30.01 10 CLR None
2018-01-20 01:53 34 21 28 58 220° 7 - 30.03 30.03 10 CLR None
2018-01-20 00:53 27 24 23 88 240° 3 - 30.05 30.04 10 CLR 6-hr Min Temp (1am): 26.1°F
6-hr Max Temp (1am): 35.1°F
2018-01-19 23:53 33 26 29 75 210° 5 - 30.06 30.06 10 CLR 24-hr Min Temp (12am): 21.0°F
24-hr Max Temp (12am): 46.9°F
2018-01-19 22:53 35 25 29 66 220° 8 - 30.07 30.07 10 CLR None
2018-01-19 21:53 28 22 24 77 220° 3 - 30.07 30.07 10 CLR None
2018-01-19 20:53 28 22 24 77 220° 3 - 30.08 30.08 10 CLR None
2018-01-19 19:53 31 22 27 68 220° 3 - 30.09 30.09 10 CLR None
2018-01-19 18:53 32 22 29 65 220° 3 - 30.08 30.08 10 CLR 6-hr Min Temp (7pm): 32.0°F
6-hr Max Temp (7pm): 44.1°F
2018-01-19 17:53 34 20 - 55 - Calm - 30.08 30.08 10 CLR None
2018-01-19 16:53 39 24 37 54 210° 3 - 30.07 30.07 10 CLR None
2018-01-19 14:53 42 31 38 64 Variable 6 - 30.07 30.06 10 CLR None
2018-01-19 13:53 43 28 41 55 Variable 3 - 30.08 30.08 10 CLR None
2018-01-19 12:53 42 28 38 57 190° 7 - 30.09 30.09 10 CLR 6-hr Min Temp (1pm): 21.0°F
6-hr Max Temp (1pm): 46.9°F
2018-01-19 10:53 42 21 38 42 300° 6 - 30.16 30.16 10 CLR None

Support USWX by starting your Amazon purchase here.